Wetter

Link zur aktuellen Windanzeige


Nordholz:

METAR:

2024/02/27 07:20 ETMN 270720Z 06005KT 0400 R08/0700N FG VV000 02/02 Q1019 RED RED TEMPO YLO

TAF:

2024/02/27 06:37 TAF AMD ETMN 270633Z 2706/2715 06007KT 0500 FG VV000 TEMPO 2706/2709 07009KT 2000 BR OVC003 BECMG 2708/2710 09008KT 9999 NSW BKN008 BECMG 2712/2714 31005KT 9999 NSW BKN020

Wind EDXN:

04.06. 05:40z 020/07kt
04.06. 05:50z 020/10G13kt
04.06. 06:00z 030/08G13kt
04.06. 06:10z 010/09kt
04.06. 06:20z 360/07G11kt
04.06. 06:30z 030/06G11kt
04.06. 06:40z 010/07G10kt
04.06. 06:50z 020/07G12kt
04.06. 07:00z 030/08kt
04.06. 07:10z 030/08kt

Bremen:

METAR:

2024/02/27 07:20 EDDW 270720Z AUTO 04006KT 010V070 9999 OVC007 03/01 Q1019 TEMPO BKN004

TAF:

2024/02/27 06:27 TAF EDDW 270500Z 2706/2806 02006KT 9999 OVC005 TEMPO 2706/2709 4000 BR BKN003 BECMG 2709/2712 BKN012 BECMG 2712/2714 VRB03KT SCT025 TEMPO 2721/2802 2500 BCFG BECMG 2800/2802 4000 BR TEMPO 2802/2806 2000 BR BKN003 PROB40 TEMPO 2802/2806 0400 FZFG OVC001

Hamburg:

METAR:

2024/02/27 07:20 EDDH 270720Z AUTO 01006KT 330V050 9999 OVC005 03/02 Q1018 TEMPO OVC004

TAF:

2024/02/27 06:27 TAF EDDH 270500Z 2706/2812 01005KT 9999 OVC005 TEMPO 2706/2708 4000 BR BKN003 BECMG 2707/2710 BKN010 BECMG 2710/2712 SCT025 BECMG 2712/2714 VRB03KT TEMPO 2722/2724 2500 BCFG BECMG 2800/2802 4000 BR TEMPO 2800/2807 2000 BR BKN003 PROB30 TEMPO 2800/2807 0400 FZFG OVC001 BECMG 2807/2809 21007KT 9999

Hannover:

METAR:

2024/02/27 07:20 EDDV 270720Z AUTO 01005KT 330V060 9999 OVC008 04/02 Q1018 TEMPO BKN010

TAF:

2024/02/27 06:27 TAF EDDV 270500Z 2706/2806 01005KT 8000 OVC005 TEMPO 2706/2710 4000 BR BKN003 PROB30 TEMPO 2706/2709 1200 BR OVC001 BECMG 2709/2712 BKN012 BECMG 2712/2714 SCT025 BECMG 2721/2723 VRB02KT 2500 BCFG BECMG 2723/2801 0400 FZFG OVC001 PROB30 TEMPO 2801/2806 1500 BR BKN003

Wikipedia Artikel: METARTAF

Daten von Aviation Weather Center der NOAA, es kann keine Garantie für Aktualität und Richtigkeit der Daten übernommen werden.

Die Nutzung dieser Daten zur Flugplanung ist nicht zulässig!

Inoffizielle ATIS 🙂